Aérodrome :
LOGIN :

S'inscrire | Disclaimer

   EN    FR    IT 

 










Légende :    VFR   VFR Marginal   IFR   IFR Intensif   IFR Très Intensif
Visi : 
Plafond : 
>= 8 km
>= 3000ft
5 à 8 km
1000 à 3000 ft
1500m à 5 km
500 à 1000 ft
800 à 1500m
200 à 500 ft
< 800m
< 200 ft
Symboles :   Orages  Brouillard  Fortes neiges  Fortes précipitations  Vent > 20 kt
SIGMETs :   Divers  Orages  Givrage  Turbulence  Onde Orograph.  Cendres Volcan.






- Altitude de l'aérodrome : 14 ft
- Code IATA : BRE


EDDW - Bremen Neuenland

DERNIER METAR :
  • 280820Z 24005KT 3800 BR BKN004 02/02 Q0995 TEMPO 2500

METARs EXPIRÉS :
  • 280750Z 22004KT 3800 BR BKN004 02/02 Q0995 TEMPO 6000 BKN005
  • 280720Z 22004KT 3800 -RA BR BKN004 02/01 Q0995 TEMPO 6000 BKN005
  • 280650Z 24005KT 5000 -RA BR BKN005 02/01 Q0995 TEMPO 4500 BKN004
  • 280620Z 24005KT 6000 -RA BKN005 02/01 Q0995 TEMPO 4500 BR BKN004
  • 280550Z 25005KT 8000 -RA SCT005 BKN012 BKN021 02/01 Q0995 TEMPO BKN005
  • 280520Z 26007KT 8000 BKN005 02/01 Q0994 TEMPO BKN004

TAF TAF EDDW
Valide du 28 à 06h jusqu'au 29 à 06h UTC


280500Z 2806/2906 26005KT 8000 BKN007
TEMPO 2806/2809 4000 -RADZ BKN004
BECMG 2809/2812 SCT013 BKN020
PROB30
TEMPO 2812/2816 SHRA BKN008TCU
BECMG 2820/2822 BKN007
PROB30
TEMPO 2822/2906 3500 BR BKN004
BECMG 2903/2906 36005KT



MET'MAP, la Météo Aéronautique d'un coup d'oeil ! - Copyright ORBIFLY Décembre 2007 - Disclaimer

ORBIFLY MET'MAP TEAM :

Programmation & Développement : Alexandra Zaïnal
Sur une idée originale de : Baudouin d'Aumeries
Assistance à la programmation : Marc-Olivier Méhu
Soutien technique & logistique : Manuel Goepfert

Contact : metmap@orbifly.com




SOURCES & CREDITS :

   NOAA